Time;durP1;ratioP1;P1;durP2;ratioP2;P2;SDS_P1;SDS_P2;PMS_P1;PMS_P2;Temp;Humidity;BMP_temperature;BMP_pressure;BME280_temperature;BME280_humidity;BME280_pressure;Samples;Min_cycle;Max_cycle;Signal;HPM_P1;HPM_P2
2022/10/25 00:01:27;;;;;;;5.07;3.30;;;16.00;85.30;;;18.63;61.41;100923.69;4920199;29;20544;-62
2022/10/25 00:03:55;;;;;;;8.90;3.37;;;16.00;85.30;;;18.63;61.27;100913.84;4920147;29;20207;-62
2022/10/25 00:06:23;;;;;;;7.80;3.27;;;16.10;85.40;;;18.65;61.42;100917.09;4920559;29;20191;-63
2022/10/25 00:08:50;;;;;;;5.93;2.97;;;16.10;85.30;;;18.70;61.30;100925.25;4920215;29;20194;-63
2022/10/25 00:11:21;;;;;;;6.57;3.17;;;16.10;85.20;;;18.73;61.12;100908.78;4919722;29;20219;-62
2022/10/25 00:13:48;;;;;;;7.33;3.50;;;16.20;86.00;;;18.76;61.42;100913.69;4901707;29;20210;-62
2022/10/25 00:16:19;;;;;;;7.93;3.43;;;16.20;85.10;;;18.78;60.82;100916.09;4901819;29;20248;-63
2022/10/25 00:18:47;;;;;;;7.17;3.20;;;16.20;85.10;;;18.79;61.08;100917.75;4901498;29;20210;-63
2022/10/25 00:21:13;;;;;;;6.37;3.47;;;16.20;85.00;;;18.77;60.89;100920.66;4902108;29;20211;-64
2022/10/25 00:23:42;;;;;;;8.03;3.60;;;16.20;84.90;;;18.77;61.23;100928.66;4920157;29;20194;-64
2022/10/25 00:26:10;;;;;;;12.70;3.60;;;16.20;84.90;;;18.77;60.87;100930.50;4919415;29;20194;-64
2022/10/25 00:28:38;;;;;;;7.80;2.83;;;16.20;84.90;;;18.73;61.28;100929.31;4919755;29;20580;-60
2022/10/25 00:31:08;;;;;;;7.53;3.20;;;16.20;85.00;;;18.77;61.27;100926.00;4919245;29;20231;-63
2022/10/25 00:33:37;;;;;;;7.20;3.33;;;16.20;85.00;;;18.76;61.07;100920.84;4905779;29;20199;-61
2022/10/25 00:36:07;;;;;;;7.60;3.10;;;16.20;85.00;;;18.75;61.10;100928.06;4919841;29;20199;-62
2022/10/25 00:38:34;;;;;;;6.00;3.40;;;16.20;85.00;;;18.77;61.10;100933.97;4919815;29;20191;-63
2022/10/25 00:41:03;;;;;;;5.50;3.00;;;16.20;84.90;;;18.79;61.05;100939.09;4919330;29;20218;-62
2022/10/25 00:43:35;;;;;;;7.67;3.90;;;16.20;85.10;;;18.80;61.08;100941.53;4918805;29;20202;-63
2022/10/25 00:46:10;;;;;;;6.63;4.33;;;16.20;85.10;;;18.83;60.91;100933.06;4914063;29;20198;-63
2022/10/25 00:48:39;;;;;;;7.23;3.67;;;16.30;85.30;;;18.89;60.96;100932.19;4919707;29;20183;-63
2022/10/25 00:51:07;;;;;;;7.47;3.23;;;16.30;85.20;;;18.92;60.77;100937.06;4918306;29;20219;-63
2022/10/25 00:53:37;;;;;;;13.33;5.13;;;16.30;85.30;;;18.90;61.13;100941.81;4919397;29;20199;-63
2022/10/25 00:56:15;;;;;;;10.93;3.47;;;16.30;85.40;;;18.89;61.32;100950.88;4919604;29;20203;-63
2022/10/25 00:58:48;;;;;;;9.30;4.60;;;16.30;85.30;;;18.91;61.15;100943.47;4918220;29;20187;-63
2022/10/25 01:01:16;;;;;;;7.50;4.30;;;16.30;85.30;;;18.94;61.19;100944.88;4918665;29;20226;-63
2022/10/25 01:03:49;;;;;;;7.53;4.47;;;16.30;85.30;;;18.99;61.09;100949.53;4919427;29;20213;-61
2022/10/25 01:06:22;;;;;;;12.63;4.40;;;16.40;85.40;;;19.00;60.98;100954.63;4934377;29;20531;-61
2022/10/25 01:08:51;;;;;;;6.63;4.20;;;16.40;85.30;;;19.06;60.98;100955.59;4919257;29;20191;-63
2022/10/25 01:11:20;;;;;;;6.30;4.30;;;16.40;85.30;;;19.14;60.94;100955.28;4918435;29;20243;-64
2022/10/25 01:13:48;;;;;;;8.53;4.40;;;16.50;85.30;;;19.19;60.53;100955.41;4919155;29;20201;-63
2022/10/25 01:16:28;;;;;;;11.07;5.10;;;16.50;85.10;;;19.20;60.40;100957.88;4919003;29;20205;-63
2022/10/25 01:19:09;;;;;;;7.20;4.43;;;16.50;84.90;;;19.22;60.17;100957.63;4918741;29;20203;-63
2022/10/25 01:21:44;;;;;;;7.97;5.00;;;16.60;84.90;;;19.25;60.40;100958.00;4899934;29;20242;-63
2022/10/25 01:24:46;;;;;;;10.27;5.13;;;16.60;84.80;;;19.23;60.47;100957.41;4900099;29;20198;-62
2022/10/25 01:27:46;;;;;;;11.50;5.30;;;16.60;84.60;;;19.27;60.08;100963.13;4899476;29;20604;-63
2022/10/25 01:30:20;;;;;;;9.60;4.83;;;16.60;84.40;;;19.34;59.90;100953.97;4906663;29;20285;-63
2022/10/25 01:33:07;;;;;;;7.93;5.40;;;16.70;84.50;;;19.39;59.93;100958.69;4919580;29;20553;-63
2022/10/25 01:35:45;;;;;;;10.37;5.73;;;16.60;84.30;;;19.43;59.41;100962.50;4900521;29;20204;-63
2022/10/25 01:38:28;;;;;;;6.67;5.93;;;16.70;84.20;;;19.37;59.31;100963.44;4912984;29;20205;-63
2022/10/25 01:41:14;;;;;;;8.53;5.70;;;16.70;83.80;;;19.39;59.87;100956.81;4918969;29;20233;-63
2022/10/25 01:43:57;;;;;;;9.73;5.80;;;16.70;83.80;;;19.37;59.64;100958.88;4919080;29;20639;-63
2022/10/25 01:46:35;;;;;;;8.00;5.30;;;16.80;83.70;;;19.43;59.64;100962.50;4918389;29;20233;-64
2022/10/25 01:49:09;;;;;;;10.50;5.67;;;16.80;83.70;;;19.46;59.41;100956.72;4918466;29;20199;-61
2022/10/25 01:51:37;;;;;;;8.20;5.50;;;16.80;83.40;;;19.51;58.95;100954.19;4917896;29;20626;-64
2022/10/25 01:54:18;;;;;;;8.23;5.93;;;16.80;83.40;;;19.50;58.80;100960.56;4918706;29;20195;-63
2022/10/25 01:57:11;;;;;;;9.30;6.20;;;16.80;83.30;;;19.32;59.07;100965.94;4919103;29;20227;-64
2022/10/25 02:00:03;;;;;;;8.43;6.03;;;16.80;82.50;;;19.29;58.75;100961.03;4918534;29;20213;-64
2022/10/25 02:02:41;;;;;;;8.87;5.53;;;16.80;82.50;;;19.35;58.80;100960.16;4917581;29;20230;-63
2022/10/25 02:05:20;;;;;;;8.60;5.73;;;16.70;82.30;;;19.38;58.57;100960.53;4918511;29;20652;-64
2022/10/25 02:08:01;;;;;;;8.33;5.83;;;16.70;82.30;;;19.41;58.23;100953.91;4918462;29;20254;-62
2022/10/25 02:10:36;;;;;;;6.97;4.53;;;16.70;82.40;;;19.46;58.13;100957.53;4908837;29;20270;-63
2022/10/25 02:13:16;;;;;;;8.90;5.37;;;16.70;82.40;;;19.50;58.41;100950.69;4918560;29;20202;-63
2022/10/25 02:15:55;;;;;;;10.50;6.03;;;16.70;82.40;;;19.53;57.94;100952.09;4918239;29;20182;-64
2022/10/25 02:18:29;;;;;;;11.80;5.87;;;16.80;82.40;;;19.53;58.27;100952.91;4918139;29;20194;-63
2022/10/25 02:21:05;;;;;;;7.70;6.03;;;16.80;82.20;;;19.51;57.85;100962.19;4917657;29;20226;-63
2022/10/25 02:23:35;;;;;;;8.73;5.60;;;16.70;81.70;;;19.52;57.74;100966.47;4918817;29;20222;-62
2022/10/25 02:26:07;;;;;;;8.30;6.27;;;16.80;81.80;;;19.53;58.03;100968.13;4926805;29;20198;-63
2022/10/25 02:28:38;;;;;;;7.43;6.10;;;16.80;81.80;;;19.53;57.43;100970.78;4917490;29;20175;-64
2022/10/25 02:31:10;;;;;;;7.33;5.60;;;16.70;81.50;;;19.53;57.49;100973.47;4917472;29;20214;-63
2022/10/25 02:33:37;;;;;;;8.17;5.50;;;16.70;81.60;;;19.56;57.64;100975.69;4917502;29;20247;-64
2022/10/25 02:36:11;;;;;;;7.07;5.53;;;16.70;81.70;;;19.59;57.33;100977.88;4917410;29;20202;-64
2022/10/25 02:38:39;;;;;;;9.77;5.93;;;16.80;81.80;;;19.63;57.47;100975.59;4917588;29;20190;-63
2022/10/25 02:41:07;;;;;;;8.77;5.67;;;16.80;81.70;;;19.65;57.48;100977.00;4912230;29;20715;-63
2022/10/25 02:43:34;;;;;;;5.37;4.83;;;16.80;82.50;;;19.66;57.24;100981.28;4897531;29;20199;-63
2022/10/25 02:46:06;;;;;;;7.43;5.77;;;16.80;81.70;;;19.66;57.62;100981.28;4899258;29;20258;-64
2022/10/25 02:48:33;;;;;;;6.73;5.70;;;16.80;81.70;;;19.65;57.22;100979.66;4901341;29;20223;-64
2022/10/25 02:51:00;;;;;;;9.93;6.37;;;16.80;81.60;;;19.63;57.60;100973.75;4916915;29;20698;-63
2022/10/25 02:53:30;;;;;;;11.97;7.07;;;16.80;81.50;;;19.54;57.03;100965.22;4917151;29;20580;-63
2022/10/25 02:56:01;;;;;;;9.33;6.30;;;16.80;81.20;;;19.42;57.84;100982.25;4917349;29;20636;-63
2022/10/25 02:58:31;;;;;;;6.97;6.33;;;16.80;81.00;;;19.39;57.59;100972.03;4917229;29;20201;-63
2022/10/25 03:00:58;;;;;;;9.33;6.13;;;16.80;81.00;;;19.39;57.90;100977.34;4916386;29;20227;-69
2022/10/25 03:03:27;;;;;;;10.53;6.47;;;16.80;81.20;;;19.40;58.01;100973.63;4917145;29;20254;-62
2022/10/25 03:05:55;;;;;;;9.40;6.40;;;16.80;81.20;;;19.40;57.99;100984.31;4931683;29;20238;-64
2022/10/25 03:08:24;;;;;;;9.50;5.73;;;16.70;81.20;;;19.42;57.86;100990.28;4916682;29;20203;-63
2022/10/25 03:10:54;;;;;;;9.93;6.40;;;16.70;81.30;;;19.44;57.41;100982.84;4915787;29;20257;-63
2022/10/25 03:13:21;;;;;;;11.10;6.40;;;16.70;81.40;;;19.47;57.46;100993.88;4917162;29;20227;-64
2022/10/25 03:15:49;;;;;;;8.97;6.07;;;16.70;81.40;;;19.49;57.71;100993.66;4917032;29;20211;-62
2022/10/25 03:18:16;;;;;;;7.50;6.17;;;16.70;81.40;;;19.50;57.48;100989.94;4916803;29;20553;-63
2022/10/25 03:20:44;;;;;;;8.53;6.20;;;16.70;81.40;;;19.53;57.39;100992.16;4916155;29;20230;-63
2022/10/25 03:23:11;;;;;;;10.47;6.63;;;16.70;81.30;;;19.54;57.32;100999.09;4916888;29;20194;-63
2022/10/25 03:25:39;;;;;;;11.70;6.43;;;16.70;81.30;;;19.55;57.25;100998.91;4916127;29;20254;-62
2022/10/25 03:28:08;;;;;;;10.70;7.17;;;16.70;81.20;;;19.57;57.34;101001.34;4916701;29;20698;-61
2022/10/25 03:30:35;;;;;;;9.67;6.73;;;16.70;81.10;;;19.56;57.38;101005.84;4916152;29;20198;-64
2022/10/25 03:33:02;;;;;;;12.83;7.20;;;16.70;81.00;;;19.57;56.73;101002.16;4916620;29;20202;-62
2022/10/25 03:35:29;;;;;;;10.70;7.00;;;16.80;81.00;;;19.60;56.81;101006.22;4916958;29;20199;-63
2022/10/25 03:37:56;;;;;;;8.37;6.57;;;16.80;81.00;;;19.58;56.85;101002.97;4916713;29;20250;-63
2022/10/25 03:40:23;;;;;;;8.50;6.17;;;16.80;80.70;;;19.59;56.80;101004.59;4915930;29;20282;-62
2022/10/25 03:42:50;;;;;;;6.70;5.83;;;16.80;80.70;;;19.62;56.74;101006.00;4916337;29;20218;-63
2022/10/25 03:45:19;;;;;;;9.10;6.80;;;16.80;80.70;;;19.66;56.68;101004.53;4916770;29;20655;-64
2022/10/25 03:47:46;;;;;;;6.43;5.43;;;16.80;81.40;;;19.69;56.88;101010.22;4916705;29;20679;-64
2022/10/25 03:50:14;;;;;;;11.00;6.03;;;16.90;80.70;;;19.72;56.93;101009.75;4915332;29;20194;-63
2022/10/25 03:52:41;;;;;;;7.57;6.23;;;16.90;80.60;;;19.70;56.73;101008.34;4916050;29;20706;-63
2022/10/25 03:55:09;;;;;;;10.63;7.10;;;16.90;80.40;;;19.68;56.54;101008.59;4916763;29;20257;-63
2022/10/25 03:57:36;;;;;;;7.17;5.50;;;16.90;80.30;;;19.69;56.85;101009.38;4916386;29;20187;-63
2022/10/25 04:00:04;;;;;;;10.90;6.77;;;16.90;80.30;;;19.68;56.93;101019.28;4916011;29;20293;-63
2022/10/25 04:02:32;;;;;;;9.60;7.00;;;16.90;80.20;;;19.65;56.71;101022.41;4914513;29;20222;-63
2022/10/25 04:04:59;;;;;;;7.73;5.87;;;17.00;80.30;;;19.66;57.09;101032.03;4916724;29;20195;-63
2022/10/25 04:07:26;;;;;;;9.00;6.20;;;16.90;80.50;;;19.71;56.98;101024.16;4916333;29;20195;-63
2022/10/25 04:09:53;;;;;;;7.90;6.50;;;17.00;80.70;;;19.76;57.22;101032.28;4915712;29;20751;-63
2022/10/25 04:12:20;;;;;;;8.10;7.27;;;17.00;80.70;;;19.76;56.60;101032.28;4915793;29;20214;-62
2022/10/25 04:14:47;;;;;;;10.93;7.17;;;17.00;80.50;;;19.76;57.07;101032.28;4916294;29;20270;-63
2022/10/25 04:17:14;;;;;;;10.53;7.10;;;17.00;80.50;;;19.73;56.75;101032.75;4916327;29;20230;-64
2022/10/25 04:19:42;;;;;;;12.40;7.73;;;17.00;80.50;;;19.70;57.31;101033.22;4916132;29;20209;-64
2022/10/25 04:22:11;;;;;;;8.80;6.03;;;17.00;80.60;;;19.66;57.15;101031.22;4917752;29;20293;-63
2022/10/25 04:24:38;;;;;;;11.50;6.70;;;17.00;80.70;;;19.65;57.18;101026.91;4920253;29;20198;-62
2022/10/25 04:27:05;;;;;;;13.00;7.53;;;17.00;80.70;;;19.63;57.52;101032.50;4918721;29;20210;-63
2022/10/25 04:29:32;;;;;;;9.53;7.23;;;17.00;81.00;;;19.61;57.90;101028.41;4919410;29;20273;-63
2022/10/25 04:31:59;;;;;;;9.70;6.97;;;17.00;81.00;;;19.55;58.19;101030.13;4918954;29;20226;-64
2022/10/25 04:34:26;;;;;;;8.37;6.10;;;17.00;81.30;;;19.53;58.01;101032.22;4919197;29;20203;-63
2022/10/25 04:36:55;;;;;;;10.67;7.03;;;16.90;81.20;;;19.50;58.23;101032.66;4919288;29;20199;-63
2022/10/25 04:39:22;;;;;;;9.23;6.80;;;16.90;81.70;;;19.49;58.59;101031.84;4919170;29;20214;-63
2022/10/25 04:41:49;;;;;;;11.23;7.40;;;16.90;81.70;;;19.50;58.57;101032.66;4918289;29;20230;-63
2022/10/25 04:44:16;;;;;;;11.80;7.27;;;16.90;82.10;;;19.50;58.52;101043.34;4919368;29;20214;-64
2022/10/25 04:46:43;;;;;;;10.23;6.30;;;16.90;82.60;;;19.46;59.05;101042.16;4919501;29;20230;-63
2022/10/25 04:49:15;;;;;;;8.40;6.57;;;16.90;82.60;;;19.43;58.96;101045.28;4919298;29;20201;-61
2022/10/25 04:51:42;;;;;;;8.33;6.53;;;16.80;82.90;;;19.43;59.48;101047.94;4919309;29;20219;-63
2022/10/25 04:54:12;;;;;;;10.03;7.80;;;16.80;83.00;;;19.44;59.23;101046.94;4919105;29;20225;-63
2022/10/25 04:56:39;;;;;;;8.53;6.93;;;16.80;83.20;;;19.41;59.75;101040.19;4919141;29;20672;-64
2022/10/25 04:59:32;;;;;;;12.70;7.37;;;16.80;83.40;;;19.31;59.38;101049.72;4918643;29;20206;-65
2022/10/25 05:02:04;;;;;;;7.80;6.20;;;16.80;83.60;;;19.28;60.32;101050.19;4918112;29;20218;-64
2022/10/25 05:04:31;;;;;;;9.57;6.73;;;16.80;83.80;;;19.26;60.13;101057.56;4919291;29;20182;-63
2022/10/25 05:06:58;;;;;;;10.17;6.30;;;16.70;83.80;;;19.24;60.25;101054.31;4919477;29;20288;-63
2022/10/25 05:09:26;;;;;;;19.00;6.87;;;16.70;84.10;;;19.23;60.58;101060.72;4919119;29;20278;-62
2022/10/25 05:11:53;;;;;;;9.40;6.73;;;16.70;84.40;;;19.22;60.38;101057.22;4918813;29;20207;-63
2022/10/25 05:14:20;;;;;;;7.80;6.43;;;16.70;84.40;;;19.24;60.29;101059.66;4919080;29;20559;-64
2022/10/25 05:16:47;;;;;;;8.13;6.37;;;16.70;84.60;;;19.25;60.85;101058.63;4919037;29;20682;-64
2022/10/25 05:19:14;;;;;;;8.53;6.90;;;16.70;84.80;;;19.19;60.65;101057.66;4918670;29;20202;-64
2022/10/25 05:21:41;;;;;;;10.57;6.27;;;16.60;85.00;;;19.18;61.09;101056.03;4918652;29;20290;-62
2022/10/25 05:24:08;;;;;;;9.23;7.20;;;16.60;85.70;;;19.19;60.79;101062.16;4900016;29;20187;-62
2022/10/25 05:26:37;;;;;;;11.40;6.07;;;16.60;85.00;;;19.22;61.02;101067.06;4899771;29;20684;-64
2022/10/25 05:29:04;;;;;;;10.70;6.93;;;16.60;85.00;;;19.19;61.08;101062.16;4905763;29;20198;-65
2022/10/25 05:31:37;;;;;;;9.83;6.93;;;16.60;85.30;;;19.22;61.03;101075.06;4917926;29;20274;-64
2022/10/25 05:34:04;;;;;;;7.57;6.80;;;16.60;85.30;;;19.27;61.07;101075.22;4916295;29;20600;-63
2022/10/25 05:36:32;;;;;;;11.13;8.23;;;16.60;85.50;;;19.30;60.63;101069.44;4918320;29;20663;-63
2022/10/25 05:39:00;;;;;;;7.77;5.43;;;16.60;85.30;;;19.36;60.44;101074.75;4917720;29;20199;-63
2022/10/25 05:41:28;;;;;;;8.07;6.03;;;16.60;85.30;;;19.40;60.70;101078.59;4917659;29;20285;-63
2022/10/25 05:44:02;;;;;;;6.73;5.60;;;16.70;85.30;;;19.40;60.54;101077.75;4917814;29;20194;-62
2022/10/25 05:46:30;;;;;;;9.27;6.07;;;16.70;85.30;;;19.45;60.20;101083.25;4918000;29;20262;-64
2022/10/25 05:48:59;;;;;;;8.40;6.27;;;16.70;85.30;;;19.52;60.13;101081.31;4917532;29;20190;-62
2022/10/25 05:51:28;;;;;;;7.00;5.77;;;16.70;85.30;;;19.56;60.02;101087.84;4917749;29;20218;-64
2022/10/25 05:54:06;;;;;;;8.37;6.87;;;16.80;85.20;;;19.54;60.09;101089.91;4917913;29;20321;-63
2022/10/25 05:56:34;;;;;;;8.73;6.20;;;16.80;85.00;;;19.51;60.10;101093.06;4917861;29;20659;-63
2022/10/25 05:59:07;;;;;;;8.67;6.50;;;16.80;84.90;;;19.54;59.87;101093.41;4917519;29;20194;-63
2022/10/25 06:01:36;;;;;;;7.90;6.47;;;16.80;85.10;;;19.58;59.86;101099.13;4917681;29;20234;-63
2022/10/25 06:04:04;;;;;;;6.80;5.90;;;16.80;85.20;;;19.61;59.79;101093.34;4917737;29;20231;-62
2022/10/25 06:06:31;;;;;;;9.03;6.73;;;16.80;85.10;;;19.60;59.71;101099.72;4932419;29;20530;-63
2022/10/25 06:09:00;;;;;;;9.07;5.87;;;16.80;85.00;;;19.63;59.98;101106.47;4917669;29;20199;-63
2022/10/25 06:11:28;;;;;;;10.67;6.50;;;16.80;85.10;;;19.65;59.95;101107.88;4917122;29;20294;-63
2022/10/25 06:13:56;;;;;;;8.70;6.13;;;16.80;85.20;;;19.63;59.97;101101.94;4917369;29;20187;-64
2022/10/25 06:16:24;;;;;;;8.93;6.00;;;16.80;85.00;;;19.64;59.84;101114.25;4917598;29;20199;-61
2022/10/25 06:18:53;;;;;;;10.97;6.53;;;16.80;85.00;;;19.61;60.11;101113.88;4917084;29;20640;-64
2022/10/25 06:21:23;;;;;;;9.00;6.27;;;16.80;85.00;;;19.57;59.92;101113.50;4917505;29;20703;-63
2022/10/25 06:23:51;;;;;;;6.90;5.70;;;16.80;84.90;;;19.58;59.83;101109.81;4917502;29;20199;-63
2022/10/25 06:26:20;;;;;;;7.33;5.63;;;16.80;84.90;;;19.57;59.83;101113.50;4917130;29;20640;-63
2022/10/25 06:28:51;;;;;;;7.93;5.50;;;16.80;84.90;;;19.59;60.34;101125.59;4916288;29;20202;-63
2022/10/25 06:31:19;;;;;;;7.60;6.20;;;16.80;85.10;;;19.65;59.63;101125.75;4916998;29;20215;-63
2022/10/25 06:33:47;;;;;;;8.23;5.10;;;16.80;85.10;;;19.67;59.90;101124.47;4916767;29;20560;-63
2022/10/25 06:36:17;;;;;;;12.87;7.40;;;16.80;85.00;;;19.65;59.63;101115.88;4916602;29;20194;-63
2022/10/25 06:38:45;;;;;;;7.00;5.77;;;16.90;85.10;;;19.66;60.02;101128.19;4916603;29;20203;-64
2022/10/25 06:41:15;;;;;;;7.73;6.67;;;16.90;85.00;;;19.70;59.56;101142.75;4916317;29;20222;-64
2022/10/25 06:43:42;;;;;;;8.90;6.03;;;16.90;85.10;;;19.74;59.99;101135.06;4916488;29;20592;-64
2022/10/25 06:46:17;;;;;;;11.17;7.00;;;16.90;85.00;;;19.71;59.37;101136.34;4916629;29;20640;-63
2022/10/25 06:48:44;;;;;;;14.23;9.70;;;16.90;84.70;;;19.75;59.93;101136.72;4915809;29;20202;-64
2022/10/25 06:51:12;;;;;;;15.23;11.40;;;17.00;85.00;;;19.78;59.44;101146.97;4916763;29;20218;-64
2022/10/25 06:53:39;;;;;;;10.03;7.00;;;16.90;84.80;;;19.82;59.93;101148.97;4916759;29;20293;-62
2022/10/25 06:56:09;;;;;;;16.77;8.33;;;17.00;84.80;;;19.81;59.61;101158.00;4916814;29;20194;-63
2022/10/25 06:58:41;;;;;;;13.17;6.80;;;17.00;84.30;;;19.83;59.61;101157.78;4916251;29;20250;-62
2022/10/25 07:01:12;;;;;;;11.37;7.30;;;17.00;84.30;;;19.85;59.67;101169.88;4916189;29;20225;-62
2022/10/25 07:03:40;;;;;;;8.97;7.13;;;17.10;84.40;;;19.89;59.11;101171.06;4915698;29;20202;-63
2022/10/25 07:06:10;;;;;;;8.40;5.70;;;17.10;84.40;;;19.93;59.42;101174.91;4916742;29;20202;-63
2022/10/25 07:08:41;;;;;;;6.27;5.67;;;17.10;84.30;;;19.93;58.83;101176.75;4916477;29;20206;-63
2022/10/25 07:11:18;;;;;;;8.27;6.20;;;17.10;84.20;;;19.92;58.70;101181.28;4916694;29;20273;-63
2022/10/25 07:13:46;;;;;;;7.70;6.77;;;17.10;84.00;;;19.92;59.01;101181.28;4916749;29;20182;-63
2022/10/25 07:16:18;;;;;;;8.40;6.53;;;17.10;84.00;;;19.91;59.17;101185.00;4915586;29;20215;-63
2022/10/25 07:18:46;;;;;;;14.87;6.33;;;17.20;83.90;;;19.93;59.36;101182.94;4916514;29;20198;-64
2022/10/25 07:21:16;;;;;;;7.60;5.97;;;17.20;83.90;;;19.93;58.67;101188.28;4917160;29;20237;-63
2022/10/25 07:23:45;;;;;;;9.43;6.70;;;17.20;83.90;;;19.95;58.61;101190.72;4917504;29;20194;-62
2022/10/25 07:26:15;;;;;;;8.73;5.73;;;17.20;83.90;;;19.90;59.33;101194.06;4915926;29;20203;-62
2022/10/25 07:28:45;;;;;;;12.50;6.10;;;17.20;83.80;;;19.94;59.40;101195.25;4916387;29;20553;-63
2022/10/25 07:31:15;;;;;;;8.77;6.40;;;17.20;83.80;;;20.01;58.79;101200.53;4916026;29;20696;-64
2022/10/25 07:33:42;;;;;;;10.80;6.27;;;17.20;83.90;;;20.09;58.69;101202.88;4916492;29;20270;-63
2022/10/25 07:36:09;;;;;;;10.17;6.33;;;17.30;83.90;;;20.15;58.49;101208.16;4918325;29;20207;-63
2022/10/25 07:38:38;;;;;;;11.77;6.53;;;17.30;83.70;;;20.21;58.35;101207.22;4921158;29;20201;-62
2022/10/25 07:41:07;;;;;;;7.27;5.63;;;17.30;83.70;;;20.23;58.62;101210.53;4918548;29;20696;-61
2022/10/25 07:43:36;;;;;;;10.73;7.03;;;17.30;83.50;;;20.19;57.92;101208.50;4919790;29;20203;-62
2022/10/25 07:46:04;;;;;;;12.13;7.10;;;17.40;83.00;;;20.07;58.28;101211.13;4918809;29;20210;-62
2022/10/25 07:48:31;;;;;;;12.13;6.47;;;17.40;82.80;;;20.07;58.32;101219.13;4917758;29;20217;-63
2022/10/25 07:51:03;;;;;;;10.30;5.93;;;17.40;83.10;;;20.15;58.53;101228.72;4915238;29;20230;-62
2022/10/25 07:53:30;;;;;;;13.07;7.30;;;17.40;83.20;;;20.25;58.07;101229.81;4916628;29;20194;-62
2022/10/25 07:55:57;;;;;;;9.77;7.00;;;17.40;83.20;;;20.29;57.81;101230.22;4916721;29;20190;-64
2022/10/25 07:58:26;;;;;;;10.60;6.13;;;17.40;83.10;;;20.34;57.83;101227.66;4919706;29;20213;-61
2022/10/25 08:01:00;;;;;;;9.37;7.03;;;17.40;83.00;;;20.37;58.15;101232.56;4919522;29;20236;-64
2022/10/25 08:03:27;;;;;;;12.67;7.93;;;17.40;82.90;;;20.39;57.70;101235.00;4919907;29;20210;-64
2022/10/25 08:05:55;;;;;;;9.50;7.80;;;17.50;82.60;;;20.40;57.88;101236.63;4901693;29;20278;-61
2022/10/25 08:08:24;;;;;;;9.40;7.23;;;17.50;82.50;;;20.44;57.21;101243.19;4912348;29;20206;-65
2022/10/25 08:10:52;;;;;;;12.10;7.37;;;17.50;82.50;;;20.48;57.12;101245.16;4915226;29;20337;-64
2022/10/25 08:13:19;;;;;;;11.87;8.10;;;17.60;82.40;;;20.53;57.47;101247.97;4916708;29;20214;-60
2022/10/25 08:15:52;;;;;;;8.63;6.83;;;17.60;82.30;;;20.56;56.96;101246.72;4918050;29;20195;-63
2022/10/25 08:18:20;;;;;;;14.30;7.33;;;17.60;82.10;;;20.57;56.55;101254.50;4918633;29;20203;-63
2022/10/25 08:20:47;;;;;;;16.03;8.13;;;17.60;81.60;;;20.55;56.97;101255.78;4916008;29;20227;-63
2022/10/25 08:23:31;;;;;;;9.50;6.60;;;17.70;81.10;;;20.53;56.90;101252.50;4918045;29;20269;-63
2022/10/25 08:25:59;;;;;;;13.10;7.00;;;17.70;81.20;;;20.56;56.78;101257.41;4916931;29;20539;-64
2022/10/25 08:28:27;;;;;;;12.50;8.90;;;17.70;81.10;;;20.63;56.83;101258.13;4917704;29;20213;-64
2022/10/25 08:30:56;;;;;;;8.93;6.40;;;17.70;81.20;;;20.75;56.14;101261.66;4915458;29;20238;-63
2022/10/25 08:33:24;;;;;;;14.30;6.57;;;17.80;81.10;;;20.87;56.01;101270.53;4913214;29;20226;-63
2022/10/25 08:35:51;;;;;;;9.50;6.03;;;17.90;81.00;;;21.00;55.98;101267.66;4912402;29;20607;-63
2022/10/25 08:38:18;;;;;;;11.07;6.67;;;18.00;81.00;;;21.06;55.42;101269.44;4916855;29;20199;-63
2022/10/25 08:40:55;;;;;;;8.87;6.40;;;18.00;80.40;;;21.06;55.70;101274.78;4910299;29;20245;-63
2022/10/25 08:43:55;;;;;;;9.43;6.37;;;18.10;80.00;;;20.92;55.73;101279.50;4916401;29;20738;-62
2022/10/25 08:46:30;;;;;;;7.80;5.93;;;18.20;79.80;;;20.86;55.40;101275.06;4907110;29;20683;-64
2022/10/25 08:49:12;;;;;;;9.97;6.80;;;18.10;79.60;;;20.72;56.24;101284.34;4912841;29;20311;-63
2022/10/25 08:51:43;;;;;;;11.00;6.17;;;18.10;79.90;;;20.65;56.55;101288.97;4910983;29;20230;-64
2022/10/25 08:54:22;;;;;;;9.73;5.40;;;18.00;80.20;;;20.60;56.59;101291.50;4916351;29;20555;-63
2022/10/25 08:56:58;;;;;;;13.33;7.03;;;17.90;80.60;;;20.51;57.12;101287.53;4913278;29;20285;-63
2022/10/25 08:59:47;;;;;;;9.23;6.63;;;17.90;80.90;;;20.60;57.11;101285.34;4916593;29;20198;-63
2022/10/25 09:02:31;;;;;;;12.73;7.50;;;17.80;81.30;;;20.67;56.72;101286.06;4913387;29;22168;-63
2022/10/25 09:04:58;;;;;;;12.07;6.60;;;17.80;81.60;;;20.87;56.79;101287.41;4914764;29;20195;-62
2022/10/25 09:07:54;;;;;;;6.73;5.80;;;17.90;82.20;;;21.25;56.45;101283.56;4916125;29;20191;-62
2022/10/25 09:10:38;;;;;;;11.00;6.67;;;18.00;82.50;;;21.73;55.55;101294.06;4909690;29;20278;-62
2022/10/25 09:13:25;;;;;;;8.10;5.77;;;18.20;82.60;;;22.23;55.02;101289.81;4908280;29;20226;-60
2022/10/25 09:16:08;;;;;;;10.47;6.20;;;18.50;82.40;;;23.02;54.11;101299.66;4904710;29;20258;-63
2022/10/25 09:18:46;;;;;;;10.67;5.23;;;18.80;82.60;;;24.03;52.97;101303.91;4907013;29;20210;-63
2022/10/25 09:21:20;;;;;;;6.80;5.53;;;19.40;83.00;;;24.53;50.37;101303.75;4907296;29;20731;-62
2022/10/25 09:24:03;;;;;;;10.43;5.60;;;19.90;80.20;;;24.57;49.85;101312.94;4908740;29;20198;-61
2022/10/25 09:26:41;;;;;;;9.40;5.43;;;20.30;77.20;;;24.36;49.07;101319.16;4908922;29;20198;-62
2022/10/25 09:29:23;;;;;;;8.30;5.10;;;20.50;75.40;;;24.01;48.73;101314.13;4906924;29;20217;-62
2022/10/25 09:31:55;;;;;;;9.10;5.23;;;20.50;73.20;;;23.65;48.90;101318.19;4909590;29;20737;-62
2022/10/25 09:34:29;;;;;;;10.07;4.97;;;20.50;72.50;;;23.30;49.39;101331.00;4908228;29;20206;-63
2022/10/25 09:37:09;;;;;;;11.03;5.93;;;20.30;72.50;;;23.02;49.61;101325.69;4907684;29;20233;-63
2022/10/25 09:39:43;;;;;;;8.17;4.70;;;20.20;72.50;;;22.82;50.24;101329.63;4908032;29;20210;-61
2022/10/25 09:42:20;;;;;;;6.63;4.90;;;20.00;72.90;;;22.63;50.56;101330.09;4905523;29;20230;-62
2022/10/25 09:44:53;;;;;;;10.37;5.40;;;19.80;73.10;;;22.51;50.99;101338.13;4907913;29;20205;-63
2022/10/25 09:47:34;;;;;;;8.07;5.60;;;19.70;73.60;;;22.43;51.05;101333.16;4904735;29;20237;-61
2022/10/25 09:50:11;;;;;;;11.17;5.23;;;19.60;74.00;;;22.43;51.33;101337.69;4920036;29;20230;-60
2022/10/25 09:52:55;;;;;;;8.37;5.13;;;19.50;74.30;;;22.40;51.10;101346.22;4906841;29;20230;-62
2022/10/25 09:55:34;;;;;;;7.00;4.70;;;19.50;74.60;;;22.36;51.13;101345.06;4910685;29;20616;-63
2022/10/25 09:58:02;;;;;;;8.27;4.73;;;19.40;74.40;;;22.32;51.20;101347.41;4911664;29;20215;-64
2022/10/25 10:00:31;;;;;;;8.67;5.17;;;19.40;74.40;;;22.24;51.01;101345.09;4911177;29;20191;-63
2022/10/25 10:02:59;;;;;;;9.63;4.50;;;19.30;74.10;;;22.17;51.16;101347.09;4912466;29;20222;-61
2022/10/25 10:05:29;;;;;;;13.20;5.00;;;19.30;74.10;;;22.14;51.46;101359.09;4909952;29;20229;-61
2022/10/25 10:08:01;;;;;;;7.40;3.57;;;19.30;74.10;;;22.09;51.39;101361.66;4911984;29;20210;-63
2022/10/25 10:10:34;;;;;;;7.67;4.43;;;19.20;74.00;;;22.05;51.41;101354.31;4906051;29;20230;-62
2022/10/25 10:13:11;;;;;;;9.10;4.73;;;19.20;74.00;;;21.96;51.37;101366.47;4886840;29;20217;-61
2022/10/25 10:15:51;;;;;;;8.37;4.60;;;19.20;74.10;;;21.88;51.74;101362.25;4887384;29;20241;-60
2022/10/25 10:18:26;;;;;;;8.43;4.87;;;19.10;73.90;;;21.85;51.61;101367.25;4903994;29;20202;-61
2022/10/25 10:21:11;;;;;;;8.57;5.10;;;19.00;73.90;;;21.85;51.79;101369.94;4900791;29;20317;-62
2022/10/25 10:23:50;;;;;;;7.23;4.60;;;19.00;74.10;;;21.85;51.57;101361.91;4904853;29;20222;-62
2022/10/25 10:26:27;;;;;;;9.53;4.13;;;19.10;73.80;;;21.89;51.44;101363.91;4903946;29;20202;-62
2022/10/25 10:29:08;;;;;;;8.53;4.20;;;19.00;73.50;;;21.90;51.08;101367.38;4903399;29;20202;-61